createdAt,value
2023-05-04T00:00:08.532Z,1.83
2023-05-04T00:02:37.099Z,1.70
2023-05-04T00:05:06.305Z,2.13
2023-05-04T00:07:35.333Z,2.07
2023-05-04T00:10:04.640Z,2.17
2023-05-04T00:12:33.408Z,2.63
2023-05-04T00:15:02.293Z,1.95
2023-05-04T00:17:31.804Z,2.20
2023-05-04T00:20:00.305Z,1.97
2023-05-04T00:22:29.093Z,2.40
2023-05-04T00:24:57.938Z,2.40
2023-05-04T00:27:26.473Z,2.10
2023-05-04T00:29:55.261Z,2.72
2023-05-04T00:32:23.611Z,1.93
2023-05-04T00:34:52.580Z,2.02
2023-05-04T00:37:21.724Z,3.13
2023-05-04T00:39:50.981Z,2.00
2023-05-04T00:42:19.491Z,1.77
2023-05-04T00:44:48.037Z,1.90
2023-05-04T00:47:18.457Z,2.07
2023-05-04T00:49:47.472Z,2.20
2023-05-04T00:52:16.426Z,2.43
2023-05-04T00:54:45.794Z,2.10
2023-05-04T00:57:15.488Z,1.60
2023-05-04T00:59:44.281Z,2.40
2023-05-04T01:02:12.665Z,2.27
2023-05-04T01:04:41.245Z,2.60
2023-05-04T01:07:11.134Z,2.10
2023-05-04T01:09:41.297Z,1.67
2023-05-04T01:12:11.127Z,1.50
2023-05-04T01:14:40.299Z,2.67
2023-05-04T01:17:09.090Z,2.10
2023-05-04T01:19:37.741Z,1.90
2023-05-04T01:22:06.230Z,2.80
2023-05-04T01:24:34.848Z,2.07
2023-05-04T01:27:07.942Z,1.72
2023-05-04T01:29:41.382Z,3.02
2023-05-04T01:32:10.612Z,2.27
2023-05-04T01:34:40.341Z,2.53
2023-05-04T01:37:09.537Z,2.17
2023-05-04T01:39:37.992Z,2.63
2023-05-04T01:42:07.137Z,2.83
2023-05-04T01:44:35.713Z,2.27
2023-05-04T01:47:05.371Z,2.92
2023-05-04T01:49:33.881Z,3.00
2023-05-04T01:52:02.642Z,2.80
2023-05-04T01:54:31.233Z,2.63
2023-05-04T01:56:59.729Z,2.70
2023-05-04T01:59:30.218Z,2.70
2023-05-04T02:01:58.826Z,2.63
2023-05-04T02:04:28.538Z,2.43
2023-05-04T02:06:57.013Z,2.77
2023-05-04T02:09:26.137Z,3.23
2023-05-04T02:11:54.622Z,2.43
2023-05-04T02:14:22.961Z,2.20
2023-05-04T02:16:51.877Z,2.97
2023-05-04T02:19:20.435Z,3.07
2023-05-04T02:21:48.922Z,2.60
2023-05-04T02:24:17.211Z,2.20
2023-05-04T02:26:45.664Z,2.30
2023-05-04T02:29:13.980Z,2.73
2023-05-04T02:31:42.503Z,2.57
2023-05-04T02:34:10.974Z,2.43
2023-05-04T02:36:41.056Z,2.23
2023-05-04T02:39:09.406Z,2.73
2023-05-04T02:41:37.829Z,2.27
2023-05-04T02:44:06.488Z,2.50
2023-05-04T02:46:35.058Z,2.43
2023-05-04T02:49:04.575Z,2.75
2023-05-04T02:51:33.313Z,2.52
2023-05-04T02:54:01.880Z,2.90
2023-05-04T02:56:30.675Z,2.95
2023-05-04T02:58:59.449Z,3.67
2023-05-04T03:01:28.000Z,2.90
2023-05-04T03:03:56.526Z,3.60
2023-05-04T03:06:25.099Z,3.03
2023-05-04T03:08:53.975Z,2.77
2023-05-04T03:11:22.874Z,3.40
2023-05-04T03:13:51.374Z,3.10
2023-05-04T03:16:21.162Z,3.80
2023-05-04T03:18:51.148Z,2.67
2023-05-04T03:21:19.560Z,3.37
2023-05-04T03:23:49.014Z,2.97
2023-05-04T03:26:17.535Z,3.40
2023-05-04T03:28:46.749Z,2.60
2023-05-04T03:31:15.145Z,3.13
2023-05-04T03:33:44.312Z,3.85
2023-05-04T03:36:12.608Z,2.93
2023-05-04T03:38:42.098Z,3.43
2023-05-04T03:41:11.407Z,3.17
2023-05-04T03:43:40.200Z,2.83
2023-05-04T03:46:08.434Z,3.60
2023-05-04T03:48:37.098Z,3.53
2023-05-04T03:51:06.871Z,3.00
2023-05-04T03:53:36.357Z,3.50
2023-05-04T03:56:05.413Z,4.30
2023-05-04T03:58:34.171Z,3.98
2023-05-04T04:01:04.987Z,3.67
2023-05-04T04:03:33.712Z,4.53
2023-05-04T04:06:03.684Z,4.87
2023-05-04T04:08:32.494Z,5.03
2023-05-04T04:11:01.328Z,5.35
2023-05-04T04:13:29.990Z,5.40
2023-05-04T04:15:58.554Z,5.23
2023-05-04T04:18:27.275Z,4.67
2023-05-04T04:20:56.170Z,4.72
2023-05-04T04:23:25.289Z,5.08
2023-05-04T04:25:53.970Z,5.80
2023-05-04T04:28:22.851Z,4.87
2023-05-04T04:30:51.540Z,5.10
2023-05-04T04:33:20.037Z,4.53
2023-05-04T04:35:48.662Z,4.93
2023-05-04T04:38:16.867Z,6.17
2023-05-04T04:40:45.700Z,4.23
2023-05-04T04:43:14.907Z,4.77
2023-05-04T04:45:44.995Z,5.62
2023-05-04T04:48:13.444Z,4.93
2023-05-04T04:50:41.954Z,5.60
2023-05-04T04:53:10.905Z,5.30
2023-05-04T04:55:39.785Z,5.07
2023-05-04T04:58:09.133Z,4.70
2023-05-04T05:00:37.991Z,4.55
2023-05-04T05:03:06.447Z,5.97
2023-05-04T05:05:34.925Z,3.70
2023-05-04T05:08:03.740Z,4.40
2023-05-04T05:10:32.292Z,4.30
2023-05-04T05:13:01.918Z,3.83
2023-05-04T05:15:31.222Z,3.70
2023-05-04T05:17:59.769Z,4.63
2023-05-04T05:20:28.307Z,3.87
2023-05-04T05:22:57.364Z,3.65
2023-05-04T05:25:25.961Z,4.20
2023-05-04T05:27:54.568Z,4.03
2023-05-04T05:30:23.080Z,3.47
2023-05-04T05:32:53.782Z,3.40
2023-05-04T05:35:22.333Z,4.23
2023-05-04T05:37:50.845Z,3.30
2023-05-04T05:40:19.256Z,2.97
2023-05-04T05:42:47.738Z,3.63
2023-05-04T05:45:16.242Z,3.67
2023-05-04T05:47:45.044Z,3.60
2023-05-04T05:50:13.993Z,3.57
2023-05-04T05:52:42.532Z,3.37
2023-05-04T05:55:10.991Z,3.40
2023-05-04T05:57:39.470Z,2.90
2023-05-04T06:00:08.489Z,3.90
2023-05-04T06:02:43.164Z,3.10
2023-05-04T06:05:11.538Z,2.67
2023-05-04T06:07:40.570Z,3.03
2023-05-04T06:10:09.427Z,3.53
2023-05-04T06:12:38.277Z,2.77
2023-05-04T06:15:08.106Z,3.27
2023-05-04T06:17:37.000Z,3.10
2023-05-04T06:20:05.892Z,2.93
2023-05-04T06:22:34.696Z,2.67
2023-05-04T06:25:06.981Z,3.50
2023-05-04T06:27:33.218Z,3.13
2023-05-04T06:30:01.684Z,3.10
2023-05-04T06:32:30.864Z,3.60
2023-05-04T06:34:59.398Z,3.00
2023-05-04T06:37:27.854Z,3.67
2023-05-04T06:39:56.428Z,3.07
2023-05-04T06:42:24.963Z,2.47
2023-05-04T06:44:55.308Z,2.77
2023-05-04T06:47:23.586Z,3.50
2023-05-04T06:49:52.494Z,3.37
2023-05-04T06:52:21.479Z,3.43
2023-05-04T06:54:49.973Z,3.53
2023-05-04T06:57:18.267Z,3.10
2023-05-04T06:59:46.871Z,3.00
2023-05-04T07:02:15.420Z,3.83
2023-05-04T07:04:44.096Z,3.10
2023-05-04T07:07:12.577Z,3.73
2023-05-04T07:09:43.505Z,3.90
2023-05-04T07:12:11.772Z,4.03
2023-05-04T07:14:40.321Z,3.47
2023-05-04T07:17:10.179Z,3.40
2023-05-04T07:19:38.669Z,3.93
2023-05-04T07:22:07.245Z,3.40
2023-05-04T07:24:35.726Z,3.70
2023-05-04T07:27:05.300Z,3.60
2023-05-04T07:29:34.131Z,3.10
2023-05-04T07:32:03.033Z,3.47
2023-05-04T07:34:44.553Z,3.00
2023-05-04T07:37:01.603Z,2.63
2023-05-04T07:39:30.108Z,2.40
2023-05-04T07:41:58.618Z,2.50
2023-05-04T07:44:27.093Z,3.10
2023-05-04T07:46:55.688Z,2.60
2023-05-04T07:49:23.910Z,2.70
2023-05-04T07:51:52.478Z,2.53
2023-05-04T07:54:23.025Z,2.47
2023-05-04T07:56:51.653Z,2.30
2023-05-04T07:59:19.993Z,1.97
2023-05-04T08:01:48.718Z,2.03
2023-05-04T08:04:17.310Z,1.57
2023-05-04T08:06:46.552Z,2.20
2023-05-04T08:09:14.921Z,1.90
2023-05-04T08:11:43.501Z,1.67
2023-05-04T08:14:12.009Z,1.37
2023-05-04T08:16:40.737Z,0.73
2023-05-04T08:19:09.897Z,0.58
2023-05-04T08:21:40.147Z,0.87
2023-05-04T08:24:08.907Z,0.83
2023-05-04T08:26:38.353Z,1.00
2023-05-04T08:29:07.640Z,0.70
2023-05-04T08:31:36.236Z,0.90
2023-05-04T08:34:05.588Z,1.07
2023-05-04T08:36:34.186Z,0.90
2023-05-04T08:39:02.742Z,0.70
2023-05-04T08:41:31.478Z,0.63
2023-05-04T08:44:00.311Z,1.10
2023-05-04T08:46:31.305Z,0.90
2023-05-04T08:48:59.834Z,1.07
2023-05-04T08:51:29.194Z,0.90
2023-05-04T08:53:58.159Z,1.40
2023-05-04T08:56:26.653Z,0.90
2023-05-04T08:58:56.797Z,1.30
2023-05-04T09:01:26.374Z,1.47
2023-05-04T09:03:55.665Z,1.17
2023-05-04T09:06:24.969Z,1.00
2023-05-04T09:08:53.989Z,0.93
2023-05-04T09:11:22.496Z,1.00
2023-05-04T09:13:51.562Z,1.10
2023-05-04T09:16:20.171Z,0.77
2023-05-04T09:18:48.769Z,0.87
2023-05-04T09:21:17.152Z,1.00
2023-05-04T09:23:49.065Z,0.80
2023-05-04T09:26:18.998Z,0.97
2023-05-04T09:28:47.218Z,0.60
2023-05-04T09:31:15.586Z,0.80
2023-05-04T09:33:44.565Z,0.93
2023-05-04T09:36:14.746Z,0.90
2023-05-04T09:38:43.078Z,0.80
2023-05-04T09:41:11.774Z,0.93
2023-05-04T09:43:40.649Z,0.80
2023-05-04T09:46:10.495Z,0.87
2023-05-04T09:48:38.743Z,1.10
2023-05-04T09:51:07.749Z,1.07
2023-05-04T09:53:38.181Z,1.10
2023-05-04T09:56:13.439Z,1.10
2023-05-04T09:58:42.918Z,0.93
2023-05-04T10:01:11.698Z,1.27
2023-05-04T10:03:40.591Z,1.10
2023-05-04T10:06:09.525Z,0.87
2023-05-04T10:08:39.307Z,1.07
2023-05-04T10:11:08.489Z,1.57
2023-05-04T10:13:37.176Z,0.90
2023-05-04T10:16:07.327Z,1.17
2023-05-04T10:18:53.852Z,1.13
2023-05-04T10:21:32.557Z,1.23
2023-05-04T10:24:14.504Z,0.90
2023-05-04T10:26:44.891Z,1.00
2023-05-04T10:29:14.647Z,1.30
2023-05-04T10:31:43.622Z,1.40
2023-05-04T10:34:12.442Z,1.20
2023-05-04T10:36:43.072Z,0.90
2023-05-04T10:39:21.440Z,0.93
2023-05-04T10:42:00.277Z,1.17
2023-05-04T10:44:32.620Z,0.80
2023-05-04T10:47:05.713Z,1.30
2023-05-04T10:49:35.415Z,1.50
2023-05-04T10:52:12.454Z,1.05
2023-05-04T10:54:41.706Z,0.93
2023-05-04T10:57:11.001Z,0.93
2023-05-04T10:59:39.950Z,1.33
2023-05-04T11:02:08.735Z,1.30
2023-05-04T11:04:38.242Z,0.93
2023-05-04T11:07:08.467Z,0.87
2023-05-04T11:09:37.888Z,1.20
2023-05-04T11:12:07.233Z,0.90
2023-05-04T11:14:37.371Z,0.97
2023-05-04T11:17:26.638Z,1.20
2023-05-04T11:19:50.823Z,1.00
2023-05-04T11:22:19.297Z,0.70
2023-05-04T11:24:51.233Z,1.40
2023-05-04T11:27:23.378Z,0.90
2023-05-04T11:29:59.264Z,1.00
2023-05-04T11:32:42.863Z,1.00
2023-05-04T11:35:13.306Z,0.80
2023-05-04T11:37:42.259Z,1.00
2023-05-04T11:40:11.749Z,0.90
2023-05-04T11:42:40.519Z,1.17
2023-05-04T11:45:10.467Z,1.30
2023-05-04T11:47:38.978Z,0.97
2023-05-04T11:50:07.964Z,1.23
2023-05-04T11:52:36.574Z,1.10
2023-05-04T11:55:05.564Z,1.33
2023-05-04T11:57:36.006Z,0.73
2023-05-04T12:00:06.091Z,1.20
2023-05-04T12:02:34.859Z,1.23
2023-05-04T12:05:05.188Z,1.23
2023-05-04T12:07:35.138Z,0.97
2023-05-04T12:10:03.710Z,1.23
2023-05-04T12:12:36.545Z,1.17
2023-05-04T12:15:05.590Z,1.13
2023-05-04T12:17:41.944Z,1.00
2023-05-04T12:20:10.696Z,1.03
2023-05-04T12:22:39.209Z,1.53
2023-05-04T12:25:09.272Z,1.20
2023-05-04T12:27:39.084Z,1.20
2023-05-04T12:30:08.099Z,1.80
2023-05-04T12:35:18.828Z,0.83
2023-05-04T12:37:48.133Z,1.13
2023-05-04T12:40:27.800Z,1.10
2023-05-04T12:42:46.492Z,0.80
2023-05-04T12:45:16.175Z,1.33
2023-05-04T12:47:44.704Z,1.43
2023-05-04T12:50:13.167Z,1.00
2023-05-04T12:52:41.686Z,1.10
2023-05-04T12:55:10.397Z,0.97
2023-05-04T12:57:39.677Z,1.20
2023-05-04T13:00:09.980Z,0.80
2023-05-04T13:02:38.285Z,0.80
2023-05-04T13:05:07.594Z,0.80
2023-05-04T13:07:36.385Z,1.10
2023-05-04T13:10:05.211Z,1.00
2023-05-04T13:12:34.107Z,0.80
2023-05-04T13:15:03.061Z,0.63
2023-05-04T13:17:33.295Z,0.90
2023-05-04T13:20:06.272Z,1.07
2023-05-04T13:22:34.926Z,0.90
2023-05-04T13:25:03.999Z,1.30
2023-05-04T13:27:33.056Z,1.20
2023-05-04T13:30:03.382Z,0.93
2023-05-04T13:32:32.151Z,1.23
2023-05-04T13:35:05.055Z,0.90
2023-05-04T13:37:33.845Z,1.40
2023-05-04T13:40:02.614Z,1.20
2023-05-04T13:42:31.128Z,1.10
2023-05-04T13:44:59.626Z,0.90
2023-05-04T13:47:28.159Z,0.70
2023-05-04T13:49:56.635Z,0.83
2023-05-04T13:52:25.161Z,0.93
2023-05-04T13:54:53.660Z,0.80
2023-05-04T13:57:22.167Z,0.77
2023-05-04T14:00:02.822Z,1.00
2023-05-04T14:02:20.538Z,0.77
2023-05-04T14:04:50.502Z,0.87
2023-05-04T14:07:18.726Z,0.87
2023-05-04T14:09:47.237Z,0.90
2023-05-04T14:12:17.375Z,0.70
2023-05-04T14:14:46.121Z,0.93
2023-05-04T14:17:14.650Z,0.90
2023-05-04T14:19:43.130Z,0.80
2023-05-04T14:22:11.503Z,0.77
2023-05-04T14:24:40.082Z,0.60
2023-05-04T14:27:08.774Z,1.03
2023-05-04T14:29:37.295Z,0.70
2023-05-04T14:32:06.123Z,1.13
2023-05-04T14:34:34.680Z,0.70
2023-05-04T14:37:03.388Z,0.50
2023-05-04T14:39:31.898Z,0.60
2023-05-04T14:42:00.541Z,0.70
2023-05-04T14:44:29.987Z,0.90
2023-05-04T14:46:58.459Z,0.80
2023-05-04T14:49:36.802Z,0.60
2023-05-04T14:51:56.879Z,0.70
2023-05-04T14:54:25.459Z,0.60
2023-05-04T14:56:54.494Z,0.60
2023-05-04T14:59:23.028Z,0.60
2023-05-04T15:01:52.209Z,1.00
2023-05-04T15:04:20.650Z,0.80
2023-05-04T15:06:49.708Z,0.63
2023-05-04T15:09:18.825Z,0.60
2023-05-04T15:11:48.482Z,0.50
2023-05-04T15:14:16.963Z,0.50
2023-05-04T15:16:45.832Z,0.60
2023-05-04T15:19:14.367Z,0.80
2023-05-04T15:21:42.795Z,0.70
2023-05-04T15:24:11.293Z,0.63
2023-05-04T15:26:39.821Z,0.63
2023-05-04T15:29:08.398Z,0.60
2023-05-04T15:31:37.121Z,0.70
2023-05-04T15:34:05.580Z,0.83
2023-05-04T15:36:34.056Z,0.67
2023-05-04T15:39:04.756Z,0.90
2023-05-04T15:41:33.235Z,1.00
2023-05-04T15:44:03.273Z,0.70
2023-05-04T15:46:31.774Z,0.80
2023-05-04T15:49:00.288Z,0.63
2023-05-04T15:51:30.647Z,0.57
2023-05-04T15:53:59.278Z,0.50
2023-05-04T15:56:28.544Z,0.97
2023-05-04T15:58:56.997Z,0.50
2023-05-04T16:01:25.588Z,0.83
2023-05-04T16:03:56.107Z,0.80
2023-05-04T16:06:24.449Z,0.50
2023-05-04T16:08:52.910Z,0.40
2023-05-04T16:11:21.411Z,0.43
2023-05-04T16:13:49.914Z,0.70
2023-05-04T16:16:18.470Z,0.63
2023-05-04T16:18:47.036Z,0.47
2023-05-04T16:21:15.235Z,0.50
2023-05-04T16:23:43.814Z,1.60
2023-05-04T16:26:12.384Z,0.73
2023-05-04T16:28:41.476Z,0.63
2023-05-04T16:31:11.915Z,0.50
2023-05-04T16:33:41.403Z,0.97
2023-05-04T16:36:10.010Z,0.50
2023-05-04T16:38:38.514Z,0.70
2023-05-04T16:41:07.002Z,0.53
2023-05-04T16:43:35.565Z,0.70
2023-05-04T16:46:04.977Z,0.30
2023-05-04T16:48:33.950Z,0.57
2023-05-04T16:51:02.424Z,0.40
2023-05-04T16:53:30.885Z,0.50
2023-05-04T16:55:59.370Z,0.77
2023-05-04T16:58:28.386Z,0.50
2023-05-04T17:00:58.172Z,0.60
2023-05-04T17:03:27.148Z,0.40
2023-05-04T17:05:55.713Z,0.73
2023-05-04T17:08:24.978Z,0.40
2023-05-04T17:10:53.499Z,0.50
2023-05-04T17:13:21.942Z,0.40
2023-05-04T17:15:50.574Z,0.43
2023-05-04T17:18:19.026Z,0.20
2023-05-04T17:20:47.553Z,1.00
2023-05-04T17:23:16.423Z,0.47
2023-05-04T17:25:45.899Z,0.87
2023-05-04T17:28:14.452Z,0.70
2023-05-04T17:30:43.361Z,0.67
2023-05-04T17:33:11.884Z,1.10
2023-05-04T17:35:41.044Z,1.43
2023-05-04T17:38:09.298Z,1.10
2023-05-04T17:40:37.803Z,0.60
2023-05-04T17:43:06.036Z,0.87
2023-05-04T17:45:34.567Z,0.83
2023-05-04T17:48:03.994Z,0.60
2023-05-04T17:50:32.570Z,0.80
2023-05-04T17:53:01.129Z,0.70
2023-05-04T17:55:29.613Z,0.60
2023-05-04T17:57:58.249Z,0.80
2023-05-04T18:00:27.933Z,0.70
2023-05-04T18:02:56.542Z,0.80
2023-05-04T18:05:25.799Z,0.50
2023-05-04T18:07:54.371Z,0.60
2023-05-04T18:10:23.058Z,1.20
2023-05-04T18:12:51.630Z,0.57
2023-05-04T18:15:20.634Z,0.40
2023-05-04T18:17:50.591Z,0.67
2023-05-04T18:20:19.016Z,0.70
2023-05-04T18:22:47.628Z,0.50
2023-05-04T18:25:16.255Z,0.60
2023-05-04T18:27:44.934Z,0.60
2023-05-04T18:30:13.481Z,1.07
2023-05-04T18:32:42.012Z,0.80
2023-05-04T18:35:11.048Z,0.67
2023-05-04T18:37:39.591Z,0.63
2023-05-04T18:40:10.455Z,0.77
2023-05-04T18:42:40.088Z,0.88
2023-05-04T18:45:10.515Z,0.70
2023-05-04T18:47:39.431Z,0.65
2023-05-04T18:50:09.809Z,1.27
2023-05-04T18:52:39.038Z,0.68
2023-05-04T18:55:07.805Z,1.00
2023-05-04T18:57:36.607Z,1.00
2023-05-04T19:00:07.346Z,1.10
2023-05-04T19:05:03.317Z,1.37
2023-05-04T19:07:31.803Z,0.70
2023-05-04T19:10:00.957Z,1.03
2023-05-04T19:12:29.534Z,0.80
2023-05-04T19:14:58.873Z,0.67
2023-05-04T19:17:27.365Z,0.83
2023-05-04T19:19:56.888Z,0.65
2023-05-04T19:22:25.783Z,1.03
2023-05-04T19:24:55.360Z,0.67
2023-05-04T19:27:23.561Z,1.27
2023-05-04T19:29:52.348Z,0.78
2023-05-04T19:32:24.838Z,0.70
2023-05-04T19:34:50.642Z,0.63
2023-05-04T19:37:19.101Z,0.90
2023-05-04T19:39:47.731Z,1.43
2023-05-04T19:42:19.084Z,1.10
2023-05-04T19:44:46.756Z,1.25
2023-05-04T19:47:15.293Z,0.90
2023-05-04T19:49:45.286Z,1.30
2023-05-04T19:52:14.127Z,0.90
2023-05-04T19:54:44.290Z,0.82
2023-05-04T19:57:12.782Z,0.90
2023-05-04T19:59:41.444Z,0.80
2023-05-04T20:02:09.764Z,1.00
2023-05-04T20:04:38.710Z,1.02
2023-05-04T20:07:07.023Z,1.10
2023-05-04T20:09:35.727Z,0.70
2023-05-04T20:12:04.452Z,1.20
2023-05-04T20:14:33.029Z,0.90
2023-05-04T20:17:02.212Z,0.90
2023-05-04T20:19:31.281Z,0.60
2023-05-04T20:22:00.047Z,1.40
2023-05-04T20:24:28.578Z,1.33
2023-05-04T20:26:57.351Z,0.85
2023-05-04T20:29:25.890Z,1.57
2023-05-04T20:31:54.708Z,0.98
2023-05-04T20:34:23.073Z,0.97
2023-05-04T20:36:51.550Z,1.20
2023-05-04T20:39:20.053Z,1.20
2023-05-04T20:41:50.665Z,1.65
2023-05-04T20:44:19.175Z,1.50
2023-05-04T20:46:47.713Z,1.20
2023-05-04T20:49:16.193Z,1.20
2023-05-04T20:51:45.004Z,1.87
2023-05-04T20:54:13.288Z,1.47
2023-05-04T20:56:42.099Z,1.60
2023-05-04T20:59:10.606Z,1.30
2023-05-04T21:01:39.173Z,1.30
2023-05-04T21:04:08.402Z,1.50
2023-05-04T21:06:37.006Z,1.27
2023-05-04T21:09:05.518Z,1.77
2023-05-04T21:11:34.392Z,1.25
2023-05-04T21:14:03.209Z,1.67
2023-05-04T21:16:31.874Z,1.87
2023-05-04T21:19:00.839Z,1.87
2023-05-04T21:21:29.351Z,1.47
2023-05-04T21:23:57.876Z,1.33
2023-05-04T21:26:26.641Z,1.50
2023-05-04T21:28:55.436Z,1.65
2023-05-04T21:31:24.002Z,1.43
2023-05-04T21:33:53.010Z,1.62
2023-05-04T21:36:22.868Z,2.03
2023-05-04T21:38:51.382Z,1.97
2023-05-04T21:41:19.583Z,1.60
2023-05-04T21:43:48.154Z,1.50
2023-05-04T21:46:16.721Z,1.70
2023-05-04T21:48:45.253Z,2.03
2023-05-04T21:51:13.529Z,1.43
2023-05-04T21:53:43.675Z,1.53
2023-05-04T21:56:12.306Z,1.90
2023-05-04T21:58:40.995Z,2.20
2023-05-04T22:01:10.265Z,1.80
2023-05-04T22:03:38.819Z,1.70
2023-05-04T22:06:07.567Z,2.05
2023-05-04T22:08:36.593Z,1.77
2023-05-04T22:11:05.889Z,1.57
2023-05-04T22:13:34.469Z,1.77
2023-05-04T22:16:03.250Z,2.87
2023-05-04T22:18:31.763Z,1.97
2023-05-04T22:21:00.562Z,1.77
2023-05-04T22:23:29.212Z,1.90
2023-05-04T22:25:58.453Z,1.70
2023-05-04T22:28:27.109Z,2.10
2023-05-04T22:30:55.885Z,2.07
2023-05-04T22:33:24.453Z,2.40
2023-05-04T22:35:53.241Z,1.90
2023-05-04T22:38:21.563Z,2.10
2023-05-04T22:40:50.087Z,1.73
2023-05-04T22:43:18.630Z,2.33
2023-05-04T22:45:47.058Z,2.07
2023-05-04T22:48:15.432Z,2.00
2023-05-04T22:50:44.293Z,1.72
2023-05-04T22:53:14.347Z,1.63
2023-05-04T22:55:42.652Z,1.97
2023-05-04T22:58:11.262Z,2.17
2023-05-04T23:00:39.688Z,2.40
2023-05-04T23:03:08.438Z,2.07
2023-05-04T23:05:37.304Z,1.80
2023-05-04T23:08:06.064Z,2.27
2023-05-04T23:10:35.516Z,2.00
2023-05-04T23:13:05.155Z,2.40
2023-05-04T23:15:33.702Z,2.63
2023-05-04T23:18:02.544Z,1.87
2023-05-04T23:20:31.477Z,2.92
2023-05-04T23:23:00.499Z,2.98
2023-05-04T23:25:29.196Z,2.20
2023-05-04T23:27:57.842Z,2.17
2023-05-04T23:30:26.332Z,2.13
2023-05-04T23:32:54.890Z,2.47
2023-05-04T23:35:23.688Z,1.90
2023-05-04T23:37:52.311Z,2.10
2023-05-04T23:40:20.692Z,2.70
2023-05-04T23:42:50.472Z,2.40
2023-05-04T23:45:19.015Z,2.10
2023-05-04T23:47:47.537Z,2.47
2023-05-04T23:50:16.073Z,2.80
2023-05-04T23:52:44.624Z,2.33
2023-05-04T23:55:13.486Z,2.50
2023-05-04T23:57:43.904Z,2.23
